createdAt,value
2017-03-03T00:00:01.159Z,20.93
2017-03-03T00:00:29.122Z,20.91
2017-03-03T00:00:57.317Z,20.81
2017-03-03T00:01:25.483Z,20.88
2017-03-03T00:01:53.564Z,20.83
2017-03-03T00:02:21.456Z,20.86
2017-03-03T00:02:49.689Z,20.85
2017-03-03T00:03:17.971Z,20.81
2017-03-03T00:03:46.219Z,20.86
2017-03-03T00:04:14.299Z,20.9
2017-03-03T00:04:42.393Z,20.91
2017-03-03T00:05:10.473Z,20.83
2017-03-03T00:05:38.678Z,20.85
2017-03-03T00:06:06.963Z,20.86
2017-03-03T00:06:35.190Z,20.94
2017-03-03T00:07:03.437Z,21.06
2017-03-03T00:07:31.731Z,21.01
2017-03-03T00:07:59.887Z,21.01
2017-03-03T00:08:28.067Z,21
2017-03-03T00:08:56.276Z,21.09
2017-03-03T00:09:24.379Z,21.12
2017-03-03T00:09:52.556Z,21.09
2017-03-03T00:10:20.742Z,21.06
2017-03-03T00:10:49.040Z,21.12
2017-03-03T00:11:17.311Z,21.08
2017-03-03T00:11:45.559Z,21.06
2017-03-03T00:12:13.736Z,21.13
2017-03-03T00:12:41.834Z,21.11
2017-03-03T00:13:10.051Z,21.12
2017-03-03T00:13:38.212Z,21.11
2017-03-03T00:14:06.353Z,21.11
2017-03-03T00:14:34.467Z,21.18
2017-03-03T00:15:02.625Z,21.16
2017-03-03T00:15:30.480Z,21.13
2017-03-03T00:15:58.782Z,21.16
2017-03-03T00:16:26.932Z,21.13
2017-03-03T00:16:54.993Z,21.12
2017-03-03T00:17:23.159Z,21.21
2017-03-03T00:17:51.318Z,21.18
2017-03-03T00:18:19.359Z,21.25
2017-03-03T00:18:47.533Z,21.27
2017-03-03T00:19:15.727Z,21.22
2017-03-03T00:19:43.878Z,21.19
2017-03-03T00:20:12.110Z,21.13
2017-03-03T00:20:40.353Z,21.09
2017-03-03T00:21:08.559Z,21.12
2017-03-03T00:21:36.699Z,21.03
2017-03-03T00:22:04.939Z,21.01
2017-03-03T00:22:33.196Z,21
2017-03-03T00:23:01.370Z,21.03
2017-03-03T00:23:29.580Z,20.98
2017-03-03T00:23:57.825Z,20.93
2017-03-03T00:24:26.057Z,20.9
2017-03-03T00:24:54.236Z,20.86
2017-03-03T00:25:22.410Z,20.86
2017-03-03T00:25:50.595Z,20.85
2017-03-03T00:26:18.790Z,20.86
2017-03-03T00:26:46.977Z,20.9
2017-03-03T00:27:15.221Z,20.96
2017-03-03T00:27:43.389Z,20.96
2017-03-03T00:28:11.510Z,20.86
2017-03-03T00:28:39.798Z,20.91
2017-03-03T00:29:07.777Z,21
2017-03-03T00:29:35.920Z,20.93
2017-03-03T00:30:04.090Z,20.93
2017-03-03T00:30:32.228Z,20.93
2017-03-03T00:31:00.587Z,20.9
2017-03-03T00:31:28.861Z,20.85
2017-03-03T00:31:56.894Z,20.86
2017-03-03T00:32:25.042Z,20.94
2017-03-03T00:32:53.309Z,20.93
2017-03-03T00:33:21.570Z,21.01
2017-03-03T00:33:49.765Z,21.01
2017-03-03T00:34:17.886Z,21.04
2017-03-03T00:34:46.058Z,21.06
2017-03-03T00:35:14.248Z,20.98
2017-03-03T00:35:42.346Z,21.13
2017-03-03T00:36:10.397Z,21.15
2017-03-03T00:36:38.619Z,21.09
2017-03-03T00:37:06.815Z,21.18
2017-03-03T00:37:34.982Z,21.15
2017-03-03T00:38:03.173Z,21.15
2017-03-03T00:38:31.382Z,21.23
2017-03-03T00:38:59.685Z,21.31
2017-03-03T00:39:27.940Z,21.28
2017-03-03T00:39:56.042Z,21.27
2017-03-03T00:40:24.246Z,21.33
2017-03-03T00:40:52.520Z,21.23
2017-03-03T00:41:20.628Z,21.31
2017-03-03T00:41:48.889Z,21.27
2017-03-03T00:42:17.042Z,21.28
2017-03-03T00:42:45.977Z,21.13
2017-03-03T00:43:14.073Z,21.11
2017-03-03T00:43:42.363Z,21.12
2017-03-03T00:44:10.659Z,21.23
2017-03-03T00:44:38.760Z,21.15
2017-03-03T00:45:06.827Z,21.15
2017-03-03T00:45:34.935Z,21.18
2017-03-03T00:46:03.169Z,21.21
2017-03-03T00:46:31.390Z,21.28
2017-03-03T00:46:59.665Z,21.27
2017-03-03T00:47:27.784Z,21.28
2017-03-03T00:47:55.897Z,21.28
2017-03-03T00:48:23.997Z,21.31
2017-03-03T00:48:52.224Z,21.28
2017-03-03T00:49:20.428Z,21.22
2017-03-03T00:49:48.735Z,21.28
2017-03-03T00:50:17.018Z,21.15
2017-03-03T00:50:45.201Z,21.15
2017-03-03T00:51:13.361Z,21.13
2017-03-03T00:51:41.538Z,21.12
2017-03-03T00:52:09.569Z,21.09
2017-03-03T00:52:37.729Z,21
2017-03-03T00:53:05.984Z,21
2017-03-03T00:53:34.234Z,21.04
2017-03-03T00:54:02.427Z,21.03
2017-03-03T00:54:30.415Z,21.01
2017-03-03T00:54:58.600Z,21
2017-03-03T00:55:26.776Z,21.01
2017-03-03T00:55:55.124Z,21.01
2017-03-03T00:56:23.437Z,20.98
2017-03-03T00:56:51.630Z,21.01
2017-03-03T00:57:19.598Z,21.01
2017-03-03T00:57:47.867Z,21.04
2017-03-03T00:58:16.058Z,21.01
2017-03-03T00:58:44.066Z,21.04
2017-03-03T00:59:12.223Z,21.03
2017-03-03T00:59:40.214Z,20.96
2017-03-03T01:00:08.302Z,20.97
2017-03-03T01:00:36.386Z,20.97
2017-03-03T01:01:04.716Z,20.96
2017-03-03T01:01:32.912Z,20.91
2017-03-03T01:02:01.015Z,20.91
2017-03-03T01:02:29.282Z,20.88
2017-03-03T01:02:57.349Z,20.88
2017-03-03T01:03:25.457Z,20.9
2017-03-03T01:03:53.675Z,20.83
2017-03-03T01:04:21.928Z,20.83
2017-03-03T01:04:50.114Z,20.85
2017-03-03T01:05:18.364Z,20.82
2017-03-03T01:05:46.417Z,20.78
2017-03-03T01:06:14.717Z,20.72
2017-03-03T01:06:42.787Z,20.78
2017-03-03T01:07:11.054Z,20.78
2017-03-03T01:07:39.338Z,20.81
2017-03-03T01:08:07.364Z,20.75
2017-03-03T01:08:35.477Z,20.81
2017-03-03T01:09:03.651Z,20.82
2017-03-03T01:09:31.772Z,20.86
2017-03-03T01:09:59.870Z,20.74
2017-03-03T01:10:28.040Z,20.79
2017-03-03T01:10:56.331Z,20.75
2017-03-03T01:11:24.855Z,20.79
2017-03-03T01:11:52.967Z,20.81
2017-03-03T01:12:20.982Z,20.79
2017-03-03T01:12:49.143Z,20.83
2017-03-03T01:13:17.326Z,20.82
2017-03-03T01:13:45.450Z,20.81
2017-03-03T01:14:13.512Z,20.82
2017-03-03T01:14:41.769Z,20.83
2017-03-03T01:15:10.059Z,20.86
2017-03-03T01:15:38.309Z,20.83
2017-03-03T01:16:06.495Z,20.81
2017-03-03T01:16:34.680Z,20.93
2017-03-03T01:17:02.898Z,20.85
2017-03-03T01:17:31.092Z,20.76
2017-03-03T01:17:59.119Z,20.76
2017-03-03T01:18:27.237Z,20.79
2017-03-03T01:18:55.247Z,20.85
2017-03-03T01:19:23.273Z,20.83
2017-03-03T01:19:51.467Z,20.85
2017-03-03T01:20:19.673Z,20.78
2017-03-03T01:20:47.936Z,20.78
2017-03-03T01:21:16.324Z,20.82
2017-03-03T01:21:44.530Z,20.79
2017-03-03T01:22:12.692Z,20.78
2017-03-03T01:22:40.859Z,20.75
2017-03-03T01:23:08.878Z,20.75
2017-03-03T01:23:37.068Z,20.78
2017-03-03T01:24:05.167Z,20.83
2017-03-03T01:24:33.351Z,20.79
2017-03-03T01:25:01.539Z,20.76
2017-03-03T01:25:29.686Z,20.82
2017-03-03T01:25:57.756Z,20.82
2017-03-03T01:26:25.896Z,20.78
2017-03-03T01:26:54.161Z,20.78
2017-03-03T01:27:22.242Z,20.78
2017-03-03T01:27:50.337Z,20.74
2017-03-03T01:28:18.420Z,20.78
2017-03-03T01:28:46.775Z,20.74
2017-03-03T01:29:14.962Z,20.71
2017-03-03T01:29:43.162Z,20.76
2017-03-03T01:30:11.469Z,20.81
2017-03-03T01:30:39.644Z,20.75
2017-03-03T01:31:07.899Z,20.74
2017-03-03T01:31:36.162Z,20.82
2017-03-03T01:32:04.399Z,20.74
2017-03-03T01:32:32.701Z,20.78
2017-03-03T01:33:00.944Z,20.79
2017-03-03T01:33:29.092Z,20.82
2017-03-03T01:33:57.343Z,20.82
2017-03-03T01:34:25.504Z,20.79
2017-03-03T01:34:53.713Z,20.86
2017-03-03T01:35:21.959Z,20.83
2017-03-03T01:35:49.982Z,20.83
2017-03-03T01:36:18.283Z,20.86
2017-03-03T01:36:46.462Z,20.82
2017-03-03T01:37:14.690Z,20.85
2017-03-03T01:37:42.973Z,20.82
2017-03-03T01:38:11.264Z,20.83
2017-03-03T01:38:39.492Z,20.82
2017-03-03T01:39:07.655Z,20.82
2017-03-03T01:39:35.781Z,20.81
2017-03-03T01:40:03.995Z,20.81
2017-03-03T01:40:32.051Z,20.88
2017-03-03T01:41:00.289Z,20.9
2017-03-03T01:41:28.543Z,20.83
2017-03-03T01:41:56.569Z,20.86
2017-03-03T01:42:24.845Z,20.79
2017-03-03T01:42:53.063Z,20.79
2017-03-03T01:43:21.020Z,20.85
2017-03-03T01:43:49.305Z,20.79
2017-03-03T01:44:17.470Z,20.82
2017-03-03T01:44:45.524Z,20.76
2017-03-03T01:45:13.578Z,20.75
2017-03-03T01:45:41.781Z,20.67
2017-03-03T01:46:09.880Z,20.76
2017-03-03T01:46:38.329Z,20.75
2017-03-03T01:47:06.518Z,20.75
2017-03-03T01:47:34.584Z,20.78
2017-03-03T01:48:02.747Z,20.79
2017-03-03T01:48:31.036Z,20.76
2017-03-03T01:48:59.099Z,20.83
2017-03-03T01:49:27.379Z,20.78
2017-03-03T01:49:55.543Z,20.81
2017-03-03T01:50:23.711Z,20.91
2017-03-03T01:50:51.967Z,20.88
2017-03-03T01:51:20.036Z,20.93
2017-03-03T01:51:48.326Z,20.9
2017-03-03T01:52:16.614Z,20.86
2017-03-03T01:52:44.792Z,20.94
2017-03-03T01:53:12.941Z,20.97
2017-03-03T01:53:41.069Z,20.93
2017-03-03T01:54:09.222Z,20.94
2017-03-03T01:54:37.389Z,20.96
2017-03-03T01:55:05.619Z,21
2017-03-03T01:55:33.736Z,21.01
2017-03-03T01:56:01.794Z,21.03
2017-03-03T01:56:30.170Z,20.96
2017-03-03T01:56:58.350Z,21.04
2017-03-03T01:57:26.534Z,21.01
2017-03-03T01:57:54.666Z,20.96
2017-03-03T01:58:22.724Z,20.98
2017-03-03T01:58:50.906Z,20.98
2017-03-03T01:59:19.007Z,21.03
2017-03-03T01:59:47.318Z,21.01
2017-03-03T02:00:15.652Z,21.01
2017-03-03T02:00:43.922Z,20.98
2017-03-03T02:01:12.112Z,20.94
2017-03-03T02:01:40.574Z,20.96
2017-03-03T02:02:08.708Z,20.86
2017-03-03T02:02:36.817Z,20.85
2017-03-03T02:03:05.089Z,20.88
2017-03-03T02:03:33.095Z,20.91
2017-03-03T02:04:01.301Z,20.83
2017-03-03T02:04:29.237Z,20.82
2017-03-03T02:04:57.438Z,20.82
2017-03-03T02:05:25.561Z,20.85
2017-03-03T02:05:53.807Z,20.86
2017-03-03T02:06:22.063Z,20.79
2017-03-03T02:06:50.319Z,20.85
2017-03-03T02:07:18.556Z,20.78
2017-03-03T02:07:46.649Z,20.75
2017-03-03T02:08:14.579Z,20.74
2017-03-03T02:08:42.828Z,20.75
2017-03-03T02:09:11.136Z,20.71
2017-03-03T02:09:39.310Z,20.79
2017-03-03T02:10:07.562Z,20.74
2017-03-03T02:10:35.660Z,20.71
2017-03-03T02:11:03.828Z,20.79
2017-03-03T02:11:32.087Z,20.74
2017-03-03T02:12:00.363Z,20.81
2017-03-03T02:12:28.285Z,20.78
2017-03-03T02:12:56.364Z,20.83
2017-03-03T02:13:24.543Z,20.71
2017-03-03T02:13:52.694Z,20.81
2017-03-03T02:14:20.795Z,20.79
2017-03-03T02:14:48.891Z,20.74
2017-03-03T02:15:17.062Z,20.78
2017-03-03T02:15:45.132Z,20.74
2017-03-03T02:16:13.253Z,20.78
2017-03-03T02:16:41.356Z,20.79
2017-03-03T02:17:09.589Z,20.81
2017-03-03T02:17:37.789Z,20.66
2017-03-03T02:18:05.955Z,20.66
2017-03-03T02:18:34.052Z,20.6
2017-03-03T02:19:02.208Z,20.61
2017-03-03T02:19:30.433Z,20.54
2017-03-03T02:19:58.663Z,20.57
2017-03-03T02:20:26.919Z,20.53
2017-03-03T02:20:55.078Z,20.54
2017-03-03T02:21:23.566Z,20.51
2017-03-03T02:21:51.720Z,20.58
2017-03-03T02:22:20.023Z,20.56
2017-03-03T02:22:48.208Z,20.48
2017-03-03T02:23:16.357Z,20.56
2017-03-03T02:23:44.612Z,20.56
2017-03-03T02:24:12.632Z,20.56
2017-03-03T02:24:40.839Z,20.46
2017-03-03T02:25:09.111Z,20.6
2017-03-03T02:25:37.185Z,20.46
2017-03-03T02:26:05.452Z,20.58
2017-03-03T02:26:33.805Z,20.57
2017-03-03T02:27:01.927Z,20.6
2017-03-03T02:27:30.082Z,20.51
2017-03-03T02:27:58.112Z,20.49
2017-03-03T02:28:26.433Z,20.49
2017-03-03T02:28:54.513Z,20.53
2017-03-03T02:29:22.552Z,20.51
2017-03-03T02:29:50.707Z,20.53
2017-03-03T02:30:18.898Z,20.56
2017-03-03T02:30:46.966Z,20.57
2017-03-03T02:31:15.353Z,20.63
2017-03-03T02:31:43.516Z,20.53
2017-03-03T02:32:11.499Z,20.57
2017-03-03T02:32:39.825Z,20.49
2017-03-03T02:33:07.941Z,20.49
2017-03-03T02:33:36.202Z,20.54
2017-03-03T02:34:04.295Z,20.53
2017-03-03T02:34:32.391Z,20.61
2017-03-03T02:35:00.441Z,20.66
2017-03-03T02:35:28.484Z,20.67
2017-03-03T02:35:56.708Z,20.61
2017-03-03T02:36:25.004Z,20.6
2017-03-03T02:36:53.230Z,20.63
2017-03-03T02:37:21.079Z,20.6
2017-03-03T02:37:49.356Z,20.6
2017-03-03T02:38:17.596Z,20.64
2017-03-03T02:38:45.881Z,20.68
2017-03-03T02:39:13.941Z,20.64
2017-03-03T02:39:42.114Z,20.68
2017-03-03T02:40:10.299Z,20.79
2017-03-03T02:40:38.359Z,20.75
2017-03-03T02:41:06.563Z,20.72
2017-03-03T02:41:34.835Z,20.76
2017-03-03T02:42:02.954Z,20.79
2017-03-03T02:42:30.960Z,20.74
2017-03-03T02:42:59.089Z,20.76
2017-03-03T02:43:27.401Z,20.76
2017-03-03T02:43:55.405Z,20.76
2017-03-03T02:44:23.692Z,20.74
2017-03-03T02:44:51.866Z,20.78
2017-03-03T02:45:20.036Z,20.79
2017-03-03T02:45:48.206Z,20.78
2017-03-03T02:46:16.515Z,20.79
2017-03-03T02:46:44.716Z,20.75
2017-03-03T02:47:13.016Z,20.75
2017-03-03T02:47:41.149Z,20.74
2017-03-03T02:48:09.309Z,20.74
2017-03-03T02:48:37.401Z,20.72
2017-03-03T02:49:05.521Z,20.76
2017-03-03T02:49:33.683Z,20.76
2017-03-03T02:50:01.877Z,20.81
2017-03-03T02:50:30.225Z,20.76
2017-03-03T02:50:58.395Z,20.79
2017-03-03T02:51:26.625Z,20.74
2017-03-03T02:51:54.883Z,20.75
2017-03-03T02:52:23.126Z,20.72
2017-03-03T02:52:51.336Z,20.79
2017-03-03T02:53:19.358Z,20.83
2017-03-03T02:53:47.540Z,20.76
2017-03-03T02:54:15.570Z,20.75
2017-03-03T02:54:43.685Z,20.86
2017-03-03T02:55:11.755Z,20.9
2017-03-03T02:55:39.808Z,20.9
2017-03-03T02:56:08.084Z,20.91
2017-03-03T02:56:36.464Z,20.9
2017-03-03T02:57:04.602Z,20.9
2017-03-03T02:57:32.685Z,20.9
2017-03-03T02:58:00.834Z,20.93
2017-03-03T02:58:28.882Z,20.83
2017-03-03T02:58:56.968Z,20.82
2017-03-03T02:59:25.143Z,20.9
2017-03-03T02:59:53.970Z,20.83
2017-03-03T03:00:22.389Z,20.82
2017-03-03T03:00:50.567Z,20.91
2017-03-03T03:01:18.712Z,20.86
2017-03-03T03:01:47.103Z,20.91
2017-03-03T03:02:16.885Z,20.86
2017-03-03T03:02:44.951Z,21
2017-03-03T03:03:13.005Z,21
2017-03-03T03:03:41.269Z,20.93
2017-03-03T03:04:09.513Z,20.93
2017-03-03T03:04:37.767Z,20.86
2017-03-03T03:05:05.953Z,20.94
2017-03-03T03:05:34.015Z,20.86
2017-03-03T03:06:02.212Z,20.82
2017-03-03T03:06:30.384Z,20.88
2017-03-03T03:06:58.379Z,20.9
2017-03-03T03:07:26.506Z,20.81
2017-03-03T03:07:54.618Z,20.86
2017-03-03T03:08:22.904Z,20.86
2017-03-03T03:08:51.191Z,20.94
2017-03-03T03:09:19.393Z,20.88
2017-03-03T03:09:47.510Z,20.88
2017-03-03T03:10:15.731Z,20.81
2017-03-03T03:10:43.787Z,20.86
2017-03-03T03:11:11.947Z,20.82
2017-03-03T03:11:40.257Z,20.83
2017-03-03T03:12:08.502Z,20.88
2017-03-03T03:12:36.625Z,20.85
2017-03-03T03:13:04.832Z,20.82
2017-03-03T03:13:33.018Z,20.85
2017-03-03T03:14:01.209Z,20.85
2017-03-03T03:14:29.402Z,20.88
2017-03-03T03:14:57.486Z,20.78
2017-03-03T03:15:25.673Z,20.86
2017-03-03T03:15:53.765Z,20.78
2017-03-03T03:16:21.936Z,20.83
2017-03-03T03:16:50.230Z,20.82
2017-03-03T03:17:18.321Z,20.86
2017-03-03T03:17:46.469Z,20.86
2017-03-03T03:18:14.450Z,20.83
2017-03-03T03:18:42.649Z,20.88
2017-03-03T03:19:10.813Z,20.79
2017-03-03T03:19:38.882Z,20.82
2017-03-03T03:20:07.194Z,20.76
2017-03-03T03:20:35.466Z,20.79
2017-03-03T03:21:03.659Z,20.75
2017-03-03T03:21:32.088Z,20.78
2017-03-03T03:22:00.122Z,20.82
2017-03-03T03:22:28.299Z,20.81
2017-03-03T03:22:56.396Z,20.82
2017-03-03T03:23:24.564Z,20.82
2017-03-03T03:23:52.786Z,20.78
2017-03-03T03:24:21.028Z,20.81
2017-03-03T03:24:49.297Z,20.78
2017-03-03T03:25:17.384Z,20.86
2017-03-03T03:25:45.479Z,20.83
2017-03-03T03:26:13.677Z,20.82
2017-03-03T03:26:42.106Z,20.86
2017-03-03T03:27:10.285Z,20.83
2017-03-03T03:27:38.446Z,20.86
2017-03-03T03:28:06.533Z,20.83
2017-03-03T03:28:34.782Z,20.83
2017-03-03T03:29:02.785Z,20.79
2017-03-03T03:29:31.045Z,20.9
2017-03-03T03:29:59.249Z,20.91
2017-03-03T03:30:27.181Z,20.82
2017-03-03T03:30:55.376Z,20.9
2017-03-03T03:31:23.423Z,20.86
2017-03-03T03:31:51.903Z,20.9
2017-03-03T03:32:20.111Z,20.82
2017-03-03T03:32:48.306Z,20.86
2017-03-03T03:33:16.542Z,20.91
2017-03-03T03:33:44.570Z,20.86
2017-03-03T03:34:12.631Z,20.86
2017-03-03T03:34:40.782Z,20.82
2017-03-03T03:35:08.725Z,20.93
2017-03-03T03:35:36.756Z,20.9
2017-03-03T03:36:04.957Z,20.82
2017-03-03T03:36:33.177Z,20.94
2017-03-03T03:37:01.522Z,20.98
2017-03-03T03:37:29.614Z,20.93
2017-03-03T03:37:57.782Z,21.01
2017-03-03T03:38:26.064Z,20.93
2017-03-03T03:38:54.345Z,20.98
2017-03-03T03:39:22.443Z,21
2017-03-03T03:39:50.766Z,21
2017-03-03T03:40:19.050Z,20.98
2017-03-03T03:40:47.236Z,21
2017-03-03T03:41:15.426Z,21
2017-03-03T03:41:43.643Z,21
2017-03-03T03:42:11.782Z,21
2017-03-03T03:42:39.962Z,21
2017-03-03T03:43:08.139Z,21
2017-03-03T03:43:36.359Z,21.04
2017-03-03T03:44:04.631Z,21.03
2017-03-03T03:44:32.699Z,20.98
2017-03-03T03:45:00.815Z,21.06
2017-03-03T03:45:29.079Z,20.98
2017-03-03T03:45:57.155Z,20.98
2017-03-03T03:46:25.419Z,21.08
2017-03-03T03:46:53.648Z,21.15
2017-03-03T03:47:21.813Z,21.13
2017-03-03T03:47:49.920Z,21.19
2017-03-03T03:48:18.029Z,21.15
2017-03-03T03:48:46.302Z,21.12
2017-03-03T03:49:14.433Z,21.13
2017-03-03T03:49:42.599Z,21.13
2017-03-03T03:50:10.775Z,21.16
2017-03-03T03:50:39.012Z,21.23
2017-03-03T03:51:07.221Z,21.23
2017-03-03T03:51:35.376Z,21.13
2017-03-03T03:52:03.624Z,21.13
2017-03-03T03:52:31.844Z,21.28
2017-03-03T03:52:59.978Z,21.16
2017-03-03T03:53:28.253Z,21.27
2017-03-03T03:53:56.229Z,21.25
2017-03-03T03:54:24.102Z,21.23
2017-03-03T03:54:52.245Z,21.28
2017-03-03T03:55:20.458Z,21.28
2017-03-03T03:55:48.773Z,21.22
2017-03-03T03:56:16.865Z,21.28
2017-03-03T03:56:45.147Z,21.25
2017-03-03T03:57:13.448Z,21.28
2017-03-03T03:57:41.562Z,21.23
2017-03-03T03:58:09.837Z,21.23
2017-03-03T03:58:38.106Z,21.22
2017-03-03T03:59:06.370Z,21.22
2017-03-03T03:59:34.652Z,21.25
2017-03-03T04:00:02.978Z,21.28
2017-03-03T04:00:31.241Z,21.27
2017-03-03T04:00:59.439Z,21.27
2017-03-03T04:01:27.499Z,21.3
2017-03-03T04:01:55.693Z,21.22
2017-03-03T04:02:23.726Z,21.19
2017-03-03T04:02:51.764Z,21.28
2017-03-03T04:03:19.961Z,21.31
2017-03-03T04:03:48.041Z,21.23
2017-03-03T04:04:16.116Z,21.23
2017-03-03T04:04:44.292Z,21.25
2017-03-03T04:05:12.601Z,21.22
2017-03-03T04:05:40.859Z,21.27
2017-03-03T04:06:09.134Z,21.25
2017-03-03T04:06:37.350Z,21.27
2017-03-03T04:07:05.612Z,21.25
2017-03-03T04:07:33.758Z,21.22
2017-03-03T04:08:01.971Z,21.33
2017-03-03T04:08:29.992Z,21.25
2017-03-03T04:08:58.193Z,21.28
2017-03-03T04:09:26.370Z,21.25
2017-03-03T04:09:54.500Z,21.25
2017-03-03T04:10:22.728Z,21.25
2017-03-03T04:10:50.861Z,21.16
2017-03-03T04:11:19.030Z,21.3
2017-03-03T04:11:47.333Z,21.25
2017-03-03T04:12:15.467Z,21.22
2017-03-03T04:12:43.669Z,21.28
2017-03-03T04:13:11.829Z,21.21
2017-03-03T04:13:40.116Z,21.3
2017-03-03T04:14:08.335Z,21.27
2017-03-03T04:14:36.570Z,21.18
2017-03-03T04:15:04.550Z,21.3
2017-03-03T04:15:32.717Z,21.31
2017-03-03T04:16:01.015Z,21.27
2017-03-03T04:16:29.152Z,21.27
2017-03-03T04:16:57.412Z,21.23
2017-03-03T04:17:25.415Z,21.37
2017-03-03T04:17:53.673Z,21.28
2017-03-03T04:18:21.826Z,21.3
2017-03-03T04:18:50.034Z,21.27
2017-03-03T04:19:18.188Z,21.28
2017-03-03T04:19:46.337Z,21.27
2017-03-03T04:20:14.531Z,21.41
2017-03-03T04:20:42.810Z,21.31
2017-03-03T04:21:11.059Z,21.3
2017-03-03T04:21:39.342Z,21.28
2017-03-03T04:22:07.669Z,21.31
2017-03-03T04:22:35.793Z,21.28
2017-03-03T04:23:03.921Z,21.4
2017-03-03T04:23:32.131Z,21.37
2017-03-03T04:24:00.110Z,21.38
2017-03-03T04:24:28.440Z,21.37
2017-03-03T04:24:56.683Z,21.41
2017-03-03T04:25:24.722Z,21.37
2017-03-03T04:25:52.916Z,21.33
2017-03-03T04:26:21.026Z,21.3
2017-03-03T04:26:49.252Z,21.36
2017-03-03T04:27:17.639Z,21.36
2017-03-03T04:27:45.685Z,21.38
2017-03-03T04:28:13.870Z,21.31
2017-03-03T04:28:42.152Z,21.36
2017-03-03T04:29:10.444Z,21.36
2017-03-03T04:29:38.581Z,21.38
2017-03-03T04:30:06.820Z,21.38
2017-03-03T04:30:34.946Z,21.4
2017-03-03T04:31:03.171Z,21.41
2017-03-03T04:31:31.379Z,21.37
2017-03-03T04:31:59.438Z,21.52
2017-03-03T04:32:27.815Z,21.41
2017-03-03T04:32:56.023Z,21.38
2017-03-03T04:33:23.961Z,21.46
2017-03-03T04:33:52.150Z,21.36
2017-03-03T04:34:20.398Z,21.4
2017-03-03T04:34:48.571Z,21.38
2017-03-03T04:35:17.327Z,21.43
2017-03-03T04:35:45.615Z,21.41
2017-03-03T04:36:14.556Z,21.41
2017-03-03T04:36:42.864Z,21.4
2017-03-03T04:37:11.233Z,21.43
2017-03-03T04:37:39.383Z,21.38
2017-03-03T04:38:07.536Z,21.46
2017-03-03T04:38:35.712Z,21.41
2017-03-03T04:39:03.969Z,21.43
2017-03-03T04:39:32.164Z,21.41
2017-03-03T04:40:00.315Z,21.4
2017-03-03T04:40:28.388Z,21.49
2017-03-03T04:40:56.617Z,21.38
2017-03-03T04:41:24.811Z,21.41
2017-03-03T04:41:53.055Z,21.41
2017-03-03T04:42:21.174Z,21.43
2017-03-03T04:42:49.475Z,21.38
2017-03-03T04:43:17.770Z,21.45
2017-03-03T04:43:46.044Z,21.4
2017-03-03T04:44:14.248Z,21.37
2017-03-03T04:44:42.517Z,21.38
2017-03-03T04:45:10.779Z,21.38
2017-03-03T04:45:39.082Z,21.38
2017-03-03T04:46:07.200Z,21.38
2017-03-03T04:46:35.474Z,21.36
2017-03-03T04:47:03.555Z,21.33
2017-03-03T04:47:31.751Z,21.36
2017-03-03T04:48:00.031Z,21.41
2017-03-03T04:48:28.265Z,21.34
2017-03-03T04:48:56.520Z,21.38
2017-03-03T04:49:24.741Z,21.45
2017-03-03T04:49:52.953Z,21.37
2017-03-03T04:50:21.046Z,21.34
2017-03-03T04:50:49.191Z,21.31
2017-03-03T04:51:17.256Z,21.31
2017-03-03T04:51:45.449Z,21.28
2017-03-03T04:52:13.612Z,21.31
2017-03-03T04:52:41.893Z,21.34
2017-03-03T04:53:10.093Z,21.36
2017-03-03T04:53:38.169Z,21.38
2017-03-03T04:54:06.477Z,21.38
2017-03-03T04:54:34.730Z,21.4
2017-03-03T04:55:02.906Z,21.37
2017-03-03T04:55:31.004Z,21.36
2017-03-03T04:55:59.171Z,21.4
2017-03-03T04:56:27.410Z,21.37
2017-03-03T04:56:55.679Z,21.41
2017-03-03T04:57:23.905Z,21.43
2017-03-03T04:57:52.096Z,21.38
2017-03-03T04:58:20.241Z,21.4
2017-03-03T04:58:48.394Z,21.41
2017-03-03T04:59:16.854Z,21.4
2017-03-03T04:59:45.042Z,21.41
2017-03-03T05:00:13.146Z,21.38
2017-03-03T05:00:41.381Z,21.46
2017-03-03T05:01:09.553Z,21.41
2017-03-03T05:01:37.863Z,21.45
2017-03-03T05:02:05.980Z,21.41
2017-03-03T05:02:34.260Z,21.41
2017-03-03T05:03:02.565Z,21.46
2017-03-03T05:03:30.864Z,21.45
2017-03-03T05:03:59.058Z,21.48
2017-03-03T05:04:27.161Z,21.48
2017-03-03T05:04:55.377Z,21.46
2017-03-03T05:05:23.561Z,21.4
2017-03-03T05:05:51.689Z,21.4
2017-03-03T05:06:19.927Z,21.52
2017-03-03T05:06:48.042Z,21.41
2017-03-03T05:07:16.065Z,21.41
2017-03-03T05:07:44.140Z,21.48
2017-03-03T05:08:12.390Z,21.48
2017-03-03T05:08:40.542Z,21.45
2017-03-03T05:09:08.792Z,21.48
2017-03-03T05:09:36.938Z,21.46
2017-03-03T05:10:05.023Z,21.43
2017-03-03T05:10:33.243Z,21.48
2017-03-03T05:11:01.532Z,21.46
2017-03-03T05:11:29.657Z,21.46
2017-03-03T05:11:57.861Z,21.51
2017-03-03T05:12:26.103Z,21.53
2017-03-03T05:12:54.335Z,21.49
2017-03-03T05:13:22.533Z,21.51
2017-03-03T05:13:50.677Z,21.49
2017-03-03T05:14:19.034Z,21.53
2017-03-03T05:14:47.249Z,21.48
2017-03-03T05:15:15.407Z,21.52
2017-03-03T05:15:43.680Z,21.49
2017-03-03T05:16:11.992Z,21.48
2017-03-03T05:16:40.008Z,21.41
2017-03-03T05:17:08.183Z,21.41
2017-03-03T05:17:36.352Z,21.38
2017-03-03T05:18:04.524Z,21.37
2017-03-03T05:18:32.604Z,21.31
2017-03-03T05:19:00.861Z,21.3
2017-03-03T05:19:29.140Z,21.28
2017-03-03T05:19:57.397Z,21.33
2017-03-03T05:20:25.468Z,21.33
2017-03-03T05:20:53.698Z,21.28
2017-03-03T05:21:21.706Z,21.23
2017-03-03T05:21:49.963Z,21.25
2017-03-03T05:22:18.118Z,21.25
2017-03-03T05:22:46.283Z,21.23
2017-03-03T05:23:14.541Z,21.34
2017-03-03T05:23:42.807Z,21.23
2017-03-03T05:24:10.937Z,21.22
2017-03-03T05:24:39.109Z,21.15
2017-03-03T05:25:07.270Z,21.13
2017-03-03T05:25:35.399Z,21.16
2017-03-03T05:26:03.572Z,21.11
2017-03-03T05:26:31.621Z,21.11
2017-03-03T05:26:59.715Z,21.15
2017-03-03T05:27:27.897Z,21.13
2017-03-03T05:27:56.100Z,21.15
2017-03-03T05:28:24.243Z,21.13
2017-03-03T05:28:52.308Z,21.09
2017-03-03T05:29:20.381Z,21.08
2017-03-03T05:29:48.589Z,21.12
2017-03-03T05:30:16.877Z,21.01
2017-03-03T05:30:44.959Z,21
2017-03-03T05:31:13.216Z,20.93
2017-03-03T05:31:41.237Z,20.98
2017-03-03T05:32:09.538Z,20.93
2017-03-03T05:32:37.712Z,20.86
2017-03-03T05:33:05.907Z,20.9
2017-03-03T05:33:34.091Z,20.91
2017-03-03T05:34:02.326Z,20.78
2017-03-03T05:34:30.716Z,20.85
2017-03-03T05:34:58.881Z,20.78
2017-03-03T05:35:27.011Z,20.83
2017-03-03T05:35:55.090Z,20.79
2017-03-03T05:36:23.191Z,20.76
2017-03-03T05:36:51.478Z,20.81
2017-03-03T05:37:19.683Z,20.74
2017-03-03T05:37:47.766Z,20.78
2017-03-03T05:38:16.045Z,20.78
2017-03-03T05:38:44.300Z,20.75
2017-03-03T05:39:12.584Z,20.68
2017-03-03T05:39:40.604Z,20.74
2017-03-03T05:40:08.918Z,20.79
2017-03-03T05:40:37.073Z,20.74
2017-03-03T05:41:05.262Z,20.75
2017-03-03T05:41:33.368Z,20.72
2017-03-03T05:42:01.546Z,20.71
2017-03-03T05:42:29.728Z,20.72
2017-03-03T05:42:57.649Z,20.68
2017-03-03T05:43:25.684Z,20.75
2017-03-03T05:43:53.824Z,20.67
2017-03-03T05:44:22.014Z,20.67
2017-03-03T05:44:50.100Z,20.64
2017-03-03T05:45:18.281Z,20.68
2017-03-03T05:45:46.368Z,20.67
2017-03-03T05:46:14.323Z,20.57
2017-03-03T05:46:42.409Z,20.63
2017-03-03T05:47:10.657Z,20.63
2017-03-03T05:47:38.779Z,20.63
2017-03-03T05:48:07.076Z,20.61
2017-03-03T05:48:35.321Z,20.61
2017-03-03T05:49:03.511Z,20.64
2017-03-03T05:49:31.825Z,20.56
2017-03-03T05:50:00.078Z,20.58
2017-03-03T05:50:28.500Z,20.6
2017-03-03T05:50:56.803Z,20.58
2017-03-03T05:51:25.011Z,20.57
2017-03-03T05:51:53.086Z,20.56
2017-03-03T05:52:21.305Z,20.54
2017-03-03T05:52:49.572Z,20.58
2017-03-03T05:53:17.753Z,20.6
2017-03-03T05:53:46.041Z,20.56
2017-03-03T05:54:14.149Z,20.57
2017-03-03T05:54:42.322Z,20.56
2017-03-03T05:55:10.500Z,20.6
2017-03-03T05:55:38.792Z,20.49
2017-03-03T05:56:06.970Z,20.58
2017-03-03T05:56:35.006Z,20.6
2017-03-03T05:57:03.184Z,20.58
2017-03-03T05:57:31.375Z,20.53
2017-03-03T05:57:59.561Z,20.56
2017-03-03T05:58:27.482Z,20.54
2017-03-03T05:58:55.689Z,20.51
2017-03-03T05:59:23.865Z,20.58
2017-03-03T05:59:52.020Z,20.44
2017-03-03T06:00:20.417Z,20.58
2017-03-03T06:00:48.589Z,20.56
2017-03-03T06:01:16.856Z,20.51
2017-03-03T06:01:44.859Z,20.53
2017-03-03T06:02:13.104Z,20.56
2017-03-03T06:02:41.406Z,20.51
2017-03-03T06:03:09.656Z,20.44
2017-03-03T06:03:37.856Z,20.46
2017-03-03T06:04:06.108Z,20.48
2017-03-03T06:04:34.157Z,20.46